George Town, Cayman Islands
Current Conditions -  °F | °C
As of 10:00 PM on Wednesday 26 Nov 2014 (Local Time) from MWCR Reporting Station
Scattered Clouds Scattered Clouds  
Wind Chill: 82°   Ceiling: Unl
Heat Index: 91°   Visibility: 6mi
Dew Point: 77°   Wind: 8mph
Humidity: 84%   Direction: 70°ENE
Pressure: 30.03"   Gusts: NA
Location:  19.28°N, 81.39°W
Report Text: MWCR 270300Z 07007KT 9999 SCT018 28/25 Q1017 NOSIG
Loading
Personal Weather Stations






























Interactive Weather Map New forecast layout! Learn more

10-Day Weather Forecast

Advertisements
Track Severe Weather on mobile